Nearby METAR Reports

 

PAEN - Kenai, Alaska, USA
Distance from station: ESE 2mi, 4km
Updated: Sun, 10-Dec-2017 4:53pm AKST
Overcast
Overcast
 Wind from N
Wind: N 28 mph , 44 km/h, Gust: 33 mph , 54 km/h
Temperature: 37°F , 3°C
Wind Chill: 25°F , -4°C
Dew Point: 32°F , 0°C
Humidity: 81%
Barometer: 29.35 inHg , 993.9 hPa
Clouds: Overcast
Visibility: 10 miles , 16 km
Cloud details: Overcast 6500 ft
2017/12/11 01:53 PAEN 110153Z 01024G29KT 10SM OVC065 03/00 A2935 RMK AO2 PK WND 02032/0128 PRESFR SLP941 T00280000
PASX - Soldotna, Alaska, USA
Distance from station: SE 12mi, 19km
Updated: Sun, 10-Dec-2017 3:56pm AKST
Overcast
Overcast
 Wind from NE
Wind: NE 8 mph , 13 km/h
Temperature: 37°F , 3°C
Wind Chill: 31°F , -1°C
Dew Point: 34°F , 1°C
Humidity: 87%
Barometer: 29.43 inHg , 996.6 hPa
Clouds: Overcast
Visibility: 10 miles , 16 km
Cloud details: Overcast 6000 ft
2017/12/11 00:56 PASX 110056Z AUTO 04007KT 10SM OVC060 03/01 A2943 RMK AO2 SLP975 T00280006
 
PANC - Anchorage Intl, Alaska, USA
Distance from station: NE 59mi, 96km
Updated: Sun, 10-Dec-2017 4:53pm AKST
Overcast
Overcast
 Wind from WNW
Wind: WNW 5 mph , 7 km/h
Temperature: 36°F , 2°C
Wind Chill: 32°F , 0°C
Dew Point: 30°F , -1°C
Humidity: 81%
Barometer: 29.42 inHg , 996.3 hPa
Clouds: Overcast
Visibility: 10 miles , 16 km
Cloud details: Partly cloudy 7000 ft
Mostly cloudy 8500 ft
Overcast 15000 ft
2017/12/11 01:53 PANC 110153Z 30004KT 10SM SCT070 BKN085 OVC150 02/M01 A2942 RMK AO2 PRESFR SLP966 VIRGA ALQDS T00171011 $
PALH - Anchorage/Lake H, Alaska, USA
Distance from station: NE 61mi, 99km
Updated: Sun, 10-Dec-2017 4:53pm AKST
Overcast
Overcast
 Wind from NE
Wind: NE 6 mph , 9 km/h
Temperature: 37°F , 3°C
Wind Chill: 32°F , 0°C
Dew Point: 30°F , -1°C
Humidity: 75%
Barometer: 29.43 inHg , 996.6 hPa
Clouds: Overcast
Visibility: 10 miles , 16 km
Cloud details: Overcast 8000 ft
2017/12/11 01:53 PALH 110153Z 05005KT 10SM OVC080 03/M01 A2943 RMK AO2 PRESFR SLP968 T00331011
 
PAHO - Homer, Alaska, USA
Distance from station: S 66mi, 106km
Updated: Sun, 10-Dec-2017 3:53pm AKST
Light rain, Overcast
Light rain, Overcast
 Wind from N
Wind: N 17 mph , 28 km/h, Gust: 29 mph , 46 km/h
Temperature: 39°F , 4°C
Wind Chill: 30°F , -1°C
Dew Point: 37°F , 3°C
Humidity: 93%
Barometer: 29.28 inHg , 991.5 hPa
Summary: Light rain
Clouds: Overcast
Visibility: 7 miles , 11 km
Cloud details: Mostly cloudy 2000 ft
Overcast 3000 ft
2017/12/11 00:53 PAHO 110053Z 01015G25KT 7SM -RA BKN020 OVC030 04/03 A2928 RMK RAB2358E17B37 PRESFR SLP915 T00390028 PNO $ VIA AUTODIAL
PAMR - Anchorage/Merril, Alaska, USA
Distance from station: NE 66mi, 106km
Updated: Sun, 10-Dec-2017 4:53pm AKST
Overcast
Overcast
 Wind from calm
Wind: Calm
Temperature: 34°F , 1°C
Dew Point: 30°F , -1°C
Humidity: 87%
Barometer: 29.43 inHg , 996.6 hPa
Clouds: Overcast
Visibility: 10 miles , 16 km
Cloud details: Overcast 8500 ft
2017/12/11 01:53 PAMR 110153Z AUTO 00000KT 10SM OVC085 01/M01 A2943 RMK AO2 PRESFR SLP966 T00111006 TSNO
 
PAED - Elmendorf Afb, Alaska, USA
Distance from station: NE 69mi, 110km
Updated: Sun, 10-Dec-2017 3:56pm AKST
Mostly cloudy
Mostly cloudy
 Wind from calm
Wind: Calm
Temperature: 36°F , 2°C
Dew Point: 32°F , 0°C
Humidity: 87%
Barometer: 29.48 inHg , 998.3 hPa
Clouds: Mostly cloudy
Visibility: 10 miles , 16 km
Cloud details: Partly cloudy 8000 ft
Mostly cloudy 9000 ft
Mostly cloudy 15000 ft
2017/12/11 00:56 PAED 110056Z 00000KT 10SM SCT080 BKN090 BKN150 02/00 A2948 RMK AO2A PRESFR SLP980 T00201003 $
PAWD - Seward, Alaska, USA
Distance from station: ESE 71mi, 115km
Updated: Sun, 10-Dec-2017 4:53pm AKST
Rain, Mist, Overcast
Rain, Mist, Overcast
 Wind from NNW
Wind: NNW 13 mph , 20 km/h, Gust: 24 mph , 39 km/h
Temperature: 43°F , 6°C
Wind Chill: 36°F , 2°C
Dew Point: 37°F , 3°C
Humidity: 81%
Barometer: 29.35 inHg , 993.9 hPa
Summary: Rain, Mist
Clouds: Overcast
Visibility: 5 miles , 8 km
Cloud details: Overcast 2400 ft
2017/12/11 01:53 PAWD 110153Z AUTO 33011G21KT 5SM RA BR OVC024 06/03 A2935 RMK AO2 SLP938 P0008 T00560033 TSNO $
 
PASC - Deadhorse, Alaska, USA
Distance from station: ENE 670mi, 1078km
Updated: Sun, 10-Dec-2017 4:53pm AKST
Blowing snow, Mist, Overcast
Blowing snow, Mist, Overcast
 Wind from ENE
Wind: ENE 35 mph , 56 km/h, Gust: 40 mph , 65 km/h
Temperature: 3°F , -16°C
Wind Chill: -23°F , -31°C
Dew Point: 1°F , -17°C
Humidity: 92%
Barometer: 30.04 inHg , 1017.3 hPa
Summary: Blowing snow, Mist
Clouds: Overcast
Visibility: 3/4 mile , 1.2 km
Cloud details: Overcast 1500 ft
2017/12/11 01:53 PASC 110153Z 07030G35KT 3/4SM R05/4000V6000FT BLSN BR OVC015 M16/M17 A3004 RMK AO2 PK WND 07038/0057 SNE11B39E40 SLP173 P0000 T11561172 $
PAAD - Point Thomson, Alaska, USA
Distance from station: ENE 680mi, 1094km
Updated: Sun, 10-Dec-2017 4:35pm AKST
Light snow, Overcast
Light snow, Overcast
 Wind from E
Wind: E 32 mph , 52 km/h, Gust: 40 mph , 65 km/h
Temperature: 5°F , -15°C
Wind Chill: -20°F , -29°C
Dew Point: 3°F , -16°C
Humidity: 92%
Barometer: 30.03 inHg , 1016.9 hPa
Summary: Light Snow
Clouds: Overcast
Visibility: 1/2 mile , 0.8 km
Cloud details: Overcast 600 ft
2017/12/11 01:35 PAAD 110135Z AUTO 08028G35KT 1/2SM -SN OVC006 M15/M16 A3003 RMK AO2 T11481165


kenaipeople.com website

Dans Automotive

Lower Peninsula Power Sports

Freddies RoadHouse

Alaska Weather Net

United States Weather Group